• Join FlightAware (Why Join?)
  • Login
  • US Flag 
04:21AM EDT


 

Airport Tracker/Info


-or-


 

Live Flight TrackerFlight Track Log ✈ ASQ6159 ✈ 30-Jun-2013 ✈ KCMH - KORD

Flight Track Log - Related Links

Times and Time Zones

All times are in EDT time to prevent confusion due to time zone crossing. See the ASQ6159 flight status page for this flight to view local times or setup timezone preferences in your user account.

Time Position Orientation Groundspeed Altitude Reporting Facility
EDT Latitude Longitude Course Direction KTS MPH feet Rate Location/Type
10:48AM 40.0014 -82.8742 287° West 162 186 1,200  Level Indianapolis Center
10:49AM 39.9986 -82.8356 95° East 159 183 2,700 2,220 Climbing Indianapolis Center
10:50AM 39.9953 -82.7586 93° East 201 231 5,100 2,280 Climbing Indianapolis Center
10:51AM 40.0665 -83.1994 285° West  Level FlightAware Approximate
10:51AM 40.0475 -82.7472 North 233 268 8,200  Level Indianapolis Center
10:52AM 40.0957 -83.3038 294° West  Level FlightAware Approximate
10:52AM 40.0575 -82.8544 277° West 256 295 10,100  Level Indianapolis Center
10:53AM 40.1264 -83.4086 287° West  Level FlightAware Approximate
10:53AM 40.0669 -82.9756 276° West 332 382 11,200  Level Indianapolis Center
10:54AM 40.0778 -83.1067 276° West 358 412 12,700 1,440 Climbing Indianapolis Center
10:55AM 40.1097 -83.2394 288° West 381 438 14,200 1,560 Climbing Indianapolis Center
10:56AM 40.1403 -83.3769 286° West 392 451 15,900 1,800 Climbing Indianapolis Center
10:57AM 40.1703 -83.5131 286° West 391 450 17,900 2,160 Climbing Indianapolis Center
10:58AM 40.1933 -83.6447 283° West 374 430 20,400 1,860 Climbing Indianapolis Center
10:59AM 40.2172 -83.8022 281° West 379 436 21,800 1,200 Climbing Indianapolis Center
11:00AM 40.2392 -83.9436 282° West 393 452 22,900 600 Climbing Indianapolis Center
11:01AM 40.2619 -84.0894 282° West 404 465 23,100 840 Climbing Indianapolis Center
11:02AM 40.2842 -84.2356 281° West 406 467 24,700 1,200 Climbing Indianapolis Center
11:03AM 40.3064 -84.3839 281° West 410 472 25,600 600 Climbing Indianapolis Center
11:04AM 40.3286 -84.5331 281° West 414 476 26,000 120 Climbing Indianapolis Center
11:05AM 40.3514 -84.6883 281° West 424 488 25,900  Descending Indianapolis Center
11:06AM 40.3717 -84.8364 280° West 416 479 26,000  Climbing Indianapolis Center
11:07AM 40.3381 -84.9647 251° West 379 436 26,000  Level Indianapolis Center
11:08AM 40.2867 -85.0897 242° Southwest 389 448 26,000  Level Indianapolis Center
11:09AM 40.3217 -85.2353 288° West 419 482 26,000  Level Indianapolis Center
11:10AM 40.3778 -85.3764 298° West 441 507 26,000 -120 Level Chicago Center
11:11AM 40.4350 -85.5217 297° West 450 518 25,800 -660 Descending Chicago Center
11:12AM 40.5069 -85.6536 306° West 448 516 24,700 -1,020 Descending Chicago Center
11:13AM 40.5814 -85.7822 307° West 446 513 23,700 -1,200 Descending Chicago Center
11:14AM 40.6725 -85.9425 307° West 457 526 22,300 -840 Descending Chicago Center
11:15AM 40.7358 -86.0581 306° West 438 504 22,000 -180 Descending Chicago Center
11:16AM 40.8067 -86.1831 307° West 427 491 22,000  Level Chicago Center
11:18AM 40.8794 -86.3131 307° West 437 503 22,000  Level Chicago Center
11:19AM 40.9650 -86.4667 306° West 435 501 22,000 -300 Level Chicago Center
11:20AM 41.0383 -86.5978 307° West 440 506 21,400 -1,800 Descending Chicago Center
11:21AM 41.1119 -86.7317 306° West 420 483 18,400 -2,580 Descending Chicago Center
11:22AM 41.1772 -86.8519 306° West 408 470 16,100 -2,280 Descending Chicago Center
11:23AM 41.2403 -86.9678 306° West 396 456 13,800 -2,040 Descending Chicago Center
11:24AM 41.3028 -87.0800 307° West 383 441 11,900 -1,380 Descending Chicago Center
11:25AM 41.3647 -87.1917 306° West 379 436 11,000 -480 Descending Chicago Center
11:26AM 41.4539 -87.2994 318° Northwest 368 423 11,000  Level Chicago Center
11:27AM 41.5300 -87.3881 319° Northwest 367 422 11,000 -180 Level Chicago Center
11:28AM 41.6028 -87.4689 320° Northwest 350 403 10,700 -660 Descending Chicago Center
11:29AM 41.6653 -87.5386 320° Northwest 308 354 9,700 -1,020 Descending Chicago Center
11:30AM 41.7258 -87.6067 320° Northwest 293 337 8,700 -1,080 Descending Chicago Center
11:31AM 41.8000 -87.6894 320° Northwest 292 336 7,500 -660 Descending Chicago Center
11:33AM 41.8167 -87.8667 277° West 272 313 6,900 -600 Descending Chicago TRACON
11:34AM 41.8167 -87.9667 270° West 252 290 5,800 -1,020 Descending Chicago TRACON